createdAt,value
2023-11-21T00:00:54.867Z,98885.52
2023-11-21T00:03:43.821Z,98889.02
2023-11-21T00:06:15.975Z,98893.37
2023-11-21T00:08:47.670Z,98894.45
2023-11-21T00:11:19.270Z,98893.65
2023-11-21T00:13:51.311Z,98887.28
2023-11-21T00:16:23.644Z,98888.84
2023-11-21T00:18:55.491Z,98890.57
2023-11-21T00:21:27.164Z,98887.50
2023-11-21T00:23:58.753Z,98887.77
2023-11-21T00:26:32.496Z,98884.48
2023-11-21T00:29:04.249Z,98888.05
2023-11-21T00:31:37.070Z,98895.30
2023-11-21T00:34:08.901Z,98887.38
2023-11-21T00:36:40.654Z,98886.84
2023-11-21T00:39:13.200Z,98894.75
2023-11-21T00:41:45.931Z,98893.88
2023-11-21T00:44:18.137Z,98891.95
2023-11-21T00:46:50.009Z,98891.77
2023-11-21T00:49:22.064Z,98896.16
2023-11-21T00:51:54.318Z,98890.38
2023-11-21T00:54:26.538Z,98899.16
2023-11-21T00:56:58.153Z,98899.14
2023-11-21T00:59:29.782Z,98903.02
2023-11-21T01:02:03.336Z,98902.48
2023-11-21T01:04:35.122Z,98905.30
2023-11-21T01:07:07.862Z,98903.04
2023-11-21T01:09:39.727Z,98906.03
2023-11-21T01:12:12.592Z,98909.20
2023-11-21T01:14:44.223Z,98910.58
2023-11-21T01:17:16.435Z,98913.73
2023-11-21T01:19:48.340Z,98916.19
2023-11-21T01:22:23.567Z,98913.72
2023-11-21T01:24:53.818Z,98917.24
2023-11-21T01:27:25.594Z,98920.92
2023-11-21T01:29:57.499Z,98924.61
2023-11-21T01:32:29.973Z,98927.91
2023-11-21T01:35:01.738Z,98929.64
2023-11-21T01:37:33.887Z,98933.65
2023-11-21T01:40:15.144Z,98937.19
2023-11-21T01:42:48.785Z,98939.64
2023-11-21T01:45:21.210Z,98943.21
2023-11-21T01:47:56.345Z,98947.29
2023-11-21T01:50:30.031Z,98950.45
2023-11-21T01:53:02.593Z,98952.37
2023-11-21T01:55:35.153Z,98955.54
2023-11-21T01:58:08.752Z,98958.52
2023-11-21T02:00:40.855Z,98960.98
2023-11-21T02:03:13.506Z,98962.06
2023-11-21T02:05:45.304Z,98961.67
2023-11-21T02:08:16.971Z,98958.88
2023-11-21T02:10:49.412Z,98958.91
2023-11-21T02:13:21.320Z,98963.15
2023-11-21T02:15:55.520Z,98959.27
2023-11-21T02:18:30.160Z,98953.83
2023-11-21T02:21:03.956Z,98952.79
2023-11-21T02:23:35.847Z,98950.13
2023-11-21T02:26:09.809Z,98946.77
2023-11-21T02:28:42.232Z,98952.77
2023-11-21T02:31:14.734Z,98954.73
2023-11-21T02:33:46.646Z,98946.27
2023-11-21T02:36:18.206Z,98947.70
2023-11-21T02:38:49.842Z,98948.40
2023-11-21T02:41:21.459Z,98949.59
2023-11-21T02:43:53.191Z,98950.65
2023-11-21T02:46:24.881Z,98949.05
2023-11-21T02:48:57.547Z,98947.43
2023-11-21T02:51:29.480Z,98951.13
2023-11-21T02:54:03.792Z,98959.23
2023-11-21T02:56:35.782Z,98952.05
2023-11-21T02:59:07.790Z,98956.61
2023-11-21T03:01:39.637Z,98958.38
2023-11-21T03:04:11.518Z,98964.37
2023-11-21T03:06:43.151Z,98970.14
2023-11-21T03:09:15.098Z,98974.86
2023-11-21T03:11:46.726Z,98973.15
2023-11-21T03:14:18.614Z,98974.91
2023-11-21T03:16:51.983Z,98975.61
2023-11-21T03:19:23.686Z,98979.31
2023-11-21T03:21:55.418Z,98981.08
2023-11-21T03:24:27.732Z,98984.90
2023-11-21T03:26:59.361Z,98980.89
2023-11-21T03:29:31.092Z,98989.73
2023-11-21T03:32:03.139Z,98993.55
2023-11-21T03:34:35.060Z,98992.35
2023-11-21T03:37:07.042Z,98999.23
2023-11-21T03:39:38.831Z,98998.30
2023-11-21T03:42:10.441Z,99000.42
2023-11-21T03:44:42.043Z,98992.38
2023-11-21T03:47:13.607Z,98996.55
2023-11-21T03:49:45.515Z,98998.47
2023-11-21T03:52:17.385Z,98996.35
2023-11-21T03:54:49.204Z,98995.48
2023-11-21T03:57:21.001Z,98997.40
2023-11-21T03:59:55.915Z,98998.11
2023-11-21T04:02:29.241Z,99003.45
2023-11-21T04:05:01.120Z,99007.80
2023-11-21T04:07:32.844Z,99007.80
2023-11-21T04:10:05.212Z,99008.38
2023-11-21T04:12:37.123Z,99012.05
2023-11-21T04:15:10.910Z,99013.23
2023-11-21T04:17:42.690Z,99014.70
2023-11-21T04:20:15.882Z,99018.73
2023-11-21T04:22:48.509Z,99024.15
2023-11-21T04:25:20.846Z,99027.13
2023-11-21T04:27:52.945Z,99025.12
2023-11-21T04:30:25.171Z,99026.27
2023-11-21T04:32:57.090Z,99026.57
2023-11-21T04:35:28.805Z,99033.39
2023-11-21T04:38:00.351Z,99040.05
2023-11-21T04:40:31.937Z,99048.46
2023-11-21T04:43:05.121Z,99047.38
2023-11-21T04:45:36.664Z,99055.05
2023-11-21T04:48:09.323Z,99062.58
2023-11-21T04:50:41.056Z,99066.04
2023-11-21T04:53:15.305Z,99074.77
2023-11-21T04:55:47.241Z,99080.39
2023-11-21T04:58:20.538Z,99087.53
2023-11-21T05:00:52.285Z,99084.29
2023-11-21T05:03:25.432Z,99084.77
2023-11-21T05:05:57.498Z,99084.75
2023-11-21T05:08:29.043Z,99084.61
2023-11-21T05:11:01.456Z,99088.68
2023-11-21T05:13:34.172Z,99092.66
2023-11-21T05:16:08.501Z,99092.98
2023-11-21T05:18:41.680Z,99095.70
2023-11-21T05:21:13.522Z,99097.91
2023-11-21T05:23:45.159Z,99100.08
2023-11-21T05:26:16.838Z,99100.72
2023-11-21T05:28:49.033Z,99101.75
2023-11-21T05:31:21.017Z,99105.48
2023-11-21T05:33:53.027Z,99110.39
2023-11-21T05:36:25.069Z,99115.60
2023-11-21T05:38:56.773Z,99117.52
2023-11-21T05:41:28.632Z,99125.11
2023-11-21T05:44:00.410Z,99125.38
2023-11-21T05:46:32.380Z,99130.84
2023-11-21T05:49:05.202Z,99129.11
2023-11-21T05:51:37.347Z,99128.30
2023-11-21T05:54:10.436Z,99128.39
2023-11-21T05:56:42.751Z,99130.66
2023-11-21T05:59:16.062Z,99135.87
2023-11-21T06:01:47.868Z,99138.55
2023-11-21T06:04:20.252Z,99139.16
2023-11-21T06:06:52.226Z,99142.42
2023-11-21T06:09:24.089Z,99146.56
2023-11-21T06:11:56.127Z,99150.63
2023-11-21T06:14:28.218Z,99154.15
2023-11-21T06:17:00.399Z,99159.84
2023-11-21T06:19:32.332Z,99159.17
2023-11-21T06:22:04.381Z,99164.05
2023-11-21T06:24:36.564Z,99167.15
2023-11-21T06:27:09.868Z,99164.41
2023-11-21T06:29:43.678Z,99163.85
2023-11-21T06:32:17.832Z,99168.83
2023-11-21T06:34:50.638Z,99176.99
2023-11-21T06:37:25.045Z,99180.52
2023-11-21T06:39:59.257Z,99179.98
2023-11-21T06:42:32.495Z,99185.42
2023-11-21T06:45:06.434Z,99187.22
2023-11-21T06:47:41.959Z,99188.59
2023-11-21T06:50:17.241Z,99188.73
2023-11-21T06:52:50.048Z,99188.59
2023-11-21T06:55:22.431Z,99196.78
2023-11-21T06:57:54.889Z,99200.98
2023-11-21T07:00:27.073Z,99203.90
2023-11-21T07:02:59.438Z,99207.64
2023-11-21T07:05:31.903Z,99207.55
2023-11-21T07:08:05.702Z,99210.91
2023-11-21T07:10:39.193Z,99212.18
2023-11-21T07:13:13.745Z,99216.93
2023-11-21T07:15:46.555Z,99225.65
2023-11-21T07:18:19.808Z,99235.88
2023-11-21T07:20:53.211Z,99245.38
2023-11-21T07:23:25.252Z,99247.20
2023-11-21T07:25:57.865Z,99241.23
2023-11-21T07:28:31.492Z,99243.23
2023-11-21T07:31:05.866Z,99242.02
2023-11-21T07:33:39.687Z,99240.40
2023-11-21T07:36:13.379Z,99247.90
2023-11-21T07:38:47.573Z,99254.34
2023-11-21T07:41:28.875Z,99260.52
2023-11-21T07:44:03.744Z,99261.24
2023-11-21T07:46:36.395Z,99257.61
2023-11-21T07:49:08.154Z,99257.58
2023-11-21T07:51:39.818Z,99257.12
2023-11-21T07:54:11.750Z,99262.70
2023-11-21T07:56:43.609Z,99268.36
2023-11-21T07:59:15.885Z,99273.02
2023-11-21T08:01:47.566Z,99277.98
2023-11-21T08:04:20.062Z,99277.84
2023-11-21T08:06:52.375Z,99282.23
2023-11-21T08:09:24.951Z,99288.95
2023-11-21T08:11:57.793Z,99285.42
2023-11-21T08:14:29.995Z,99294.59
2023-11-21T08:17:02.391Z,99293.52
2023-11-21T08:19:35.188Z,99298.40
2023-11-21T08:22:09.436Z,99298.95
2023-11-21T08:24:41.690Z,99295.94
2023-11-21T08:27:17.492Z,99299.08
2023-11-21T08:29:49.465Z,99306.66
2023-11-21T08:32:21.716Z,99307.81
2023-11-21T08:34:53.989Z,99305.64
2023-11-21T08:37:28.219Z,99311.98
2023-11-21T08:40:03.709Z,99302.65
2023-11-21T08:42:36.856Z,99308.71
2023-11-21T08:45:12.064Z,99312.63
2023-11-21T08:47:45.629Z,99311.59
2023-11-21T08:50:18.197Z,99306.83
2023-11-21T08:52:51.366Z,99305.34
2023-11-21T08:55:24.405Z,99304.77
2023-11-21T08:57:57.754Z,99301.17
2023-11-21T09:00:31.211Z,99299.58
2023-11-21T09:03:09.775Z,99303.53
2023-11-21T09:05:43.263Z,99303.44
2023-11-21T09:08:15.636Z,99297.31
2023-11-21T09:10:48.561Z,99300.82
2023-11-21T09:13:22.286Z,99301.11
2023-11-21T09:15:55.486Z,99306.08
2023-11-21T09:18:27.358Z,99308.64
2023-11-21T09:21:00.182Z,99318.58
2023-11-21T09:23:32.293Z,99326.17
2023-11-21T09:26:04.777Z,99330.55
2023-11-21T09:28:39.759Z,99326.34
2023-11-21T09:31:11.720Z,99334.26
2023-11-21T09:33:43.708Z,99333.23
2023-11-21T09:36:18.547Z,99338.79
2023-11-21T09:38:51.342Z,99341.73
2023-11-21T09:41:36.314Z,99345.15
2023-11-21T09:44:12.296Z,99354.36
2023-11-21T09:46:46.321Z,99355.09
2023-11-21T09:49:21.016Z,99351.91
2023-11-21T09:51:52.577Z,99359.29
2023-11-21T09:54:24.894Z,99361.83
2023-11-21T09:56:57.182Z,99366.14
2023-11-21T09:59:33.341Z,99365.96
2023-11-21T10:02:06.697Z,99372.39
2023-11-21T10:04:38.836Z,99372.76
2023-11-21T10:07:13.627Z,99374.17
2023-11-21T10:09:45.987Z,99372.76
2023-11-21T10:12:18.975Z,99371.22
2023-11-21T10:14:53.654Z,99379.95
2023-11-21T10:17:31.560Z,99384.90
2023-11-21T10:20:07.801Z,99386.36
2023-11-21T10:22:42.481Z,99384.84
2023-11-21T10:25:15.779Z,99385.88
2023-11-21T10:27:52.997Z,99385.59
2023-11-21T10:30:27.249Z,99384.27
2023-11-21T10:33:06.034Z,99386.08
2023-11-21T10:35:52.418Z,99387.20
2023-11-21T10:38:27.272Z,99389.65
2023-11-21T10:40:59.642Z,99395.60
2023-11-21T10:43:32.761Z,99395.63
2023-11-21T10:46:05.700Z,99399.20
2023-11-21T10:48:39.382Z,99405.72
2023-11-21T10:51:12.802Z,99403.41
2023-11-21T10:53:48.154Z,99404.34
2023-11-21T10:56:25.738Z,99403.46
2023-11-21T10:58:59.926Z,99401.52
2023-11-21T11:01:34.842Z,99403.48
2023-11-21T11:04:16.069Z,99408.14
2023-11-21T11:06:53.543Z,99407.65
2023-11-21T11:09:26.340Z,99412.31
2023-11-21T11:12:00.266Z,99410.04
2023-11-21T11:14:33.529Z,99408.60
2023-11-21T11:17:07.352Z,99405.40
2023-11-21T11:19:40.697Z,99406.66
2023-11-21T11:22:26.569Z,99407.70
2023-11-21T11:25:21.941Z,99413.11
2023-11-21T11:28:04.508Z,99411.52
2023-11-21T11:30:50.075Z,99413.16
2023-11-21T11:33:36.726Z,99414.66
2023-11-21T11:36:17.911Z,99415.84
2023-11-21T11:38:51.471Z,99416.81
2023-11-21T11:41:30.963Z,99416.11
2023-11-21T11:44:03.824Z,99418.92
2023-11-21T11:46:48.199Z,99417.42
2023-11-21T11:49:33.480Z,99416.77
2023-11-21T11:52:37.385Z,99417.96
2023-11-21T11:55:12.536Z,99414.05
2023-11-21T11:57:45.888Z,99411.30
2023-11-21T12:00:23.763Z,99411.45
2023-11-21T12:02:58.294Z,99412.48
2023-11-21T12:05:34.123Z,99415.88
2023-11-21T12:08:08.461Z,99419.39
2023-11-21T12:10:42.116Z,99418.08
2023-11-21T12:13:15.208Z,99419.85
2023-11-21T12:15:48.498Z,99426.62
2023-11-21T12:18:21.439Z,99428.92
2023-11-21T12:20:55.580Z,99429.25
2023-11-21T12:23:30.920Z,99429.13
2023-11-21T12:26:03.618Z,99425.23
2023-11-21T12:28:36.064Z,99424.13
2023-11-21T12:31:19.928Z,99424.00
2023-11-21T12:33:55.257Z,99422.59
2023-11-21T12:36:30.197Z,99428.58
2023-11-21T12:39:03.886Z,99429.42
2023-11-21T12:41:36.496Z,99425.41
2023-11-21T12:44:16.902Z,99426.14
2023-11-21T12:46:49.409Z,99425.80
2023-11-21T12:49:23.497Z,99431.80
2023-11-21T12:51:56.712Z,99433.04
2023-11-21T12:54:31.237Z,99443.45
2023-11-21T12:57:09.743Z,99444.66
2023-11-21T12:59:46.752Z,99443.79
2023-11-21T13:02:19.542Z,99448.77
2023-11-21T13:04:59.824Z,99444.66
2023-11-21T13:07:32.230Z,99445.91
2023-11-21T13:10:06.948Z,99443.27
2023-11-21T13:12:41.567Z,99441.70
2023-11-21T13:15:19.146Z,99443.29
2023-11-21T13:17:52.601Z,99449.09
2023-11-21T13:20:25.736Z,99446.80
2023-11-21T13:23:00.526Z,99448.22
2023-11-21T13:25:33.742Z,99450.86
2023-11-21T13:28:06.209Z,99455.10
2023-11-21T13:30:40.838Z,99457.39
2023-11-21T13:33:20.157Z,99464.63
2023-11-21T13:35:53.272Z,99465.86
2023-11-21T13:38:26.499Z,99465.68
2023-11-21T13:40:59.969Z,99468.47
2023-11-21T13:43:32.754Z,99469.18
2023-11-21T13:46:14.941Z,99473.93
2023-11-21T13:48:52.501Z,99474.48
2023-11-21T13:51:38.984Z,99472.05
2023-11-21T13:54:11.431Z,99473.27
2023-11-21T13:56:47.299Z,99481.74
2023-11-21T13:59:24.477Z,99484.39
2023-11-21T14:01:59.795Z,99488.63
2023-11-21T14:04:56.513Z,99488.27
2023-11-21T14:07:37.461Z,99493.56
2023-11-21T14:10:15.880Z,99493.40
2023-11-21T14:12:48.495Z,99494.27
2023-11-21T14:15:20.547Z,99499.55
2023-11-21T14:17:53.137Z,99500.61
2023-11-21T14:20:26.459Z,99508.89
2023-11-21T14:22:58.921Z,99508.73
2023-11-21T14:25:31.896Z,99516.49
2023-11-21T14:28:07.559Z,99524.77
2023-11-21T14:30:41.177Z,99519.61
2023-11-21T14:33:13.811Z,99519.77
2023-11-21T14:35:48.474Z,99520.45
2023-11-21T14:38:22.573Z,99525.87
2023-11-21T14:40:56.830Z,99528.31
2023-11-21T14:43:31.390Z,99536.58
2023-11-21T14:46:08.515Z,99537.05
2023-11-21T14:48:44.466Z,99542.86
2023-11-21T14:51:33.137Z,99544.42
2023-11-21T14:54:08.742Z,99551.62
2023-11-21T14:56:45.303Z,99554.64
2023-11-21T14:59:18.833Z,99557.67
2023-11-21T15:01:56.948Z,99566.66
2023-11-21T15:04:37.685Z,99567.55
2023-11-21T15:07:13.193Z,99573.65
2023-11-21T15:09:46.553Z,99576.02
2023-11-21T15:12:21.366Z,99583.60
2023-11-21T15:14:57.021Z,99587.23
2023-11-21T15:17:32.282Z,99586.41
2023-11-21T15:20:08.259Z,99589.91
2023-11-21T15:22:42.468Z,99594.27
2023-11-21T15:25:15.280Z,99596.36
2023-11-21T15:27:50.520Z,99597.41
2023-11-21T15:30:26.140Z,99600.42
2023-11-21T15:32:58.584Z,99605.02
2023-11-21T15:35:31.955Z,99605.29
2023-11-21T15:38:04.160Z,99600.95
2023-11-21T15:40:36.867Z,99606.15
2023-11-21T15:43:09.783Z,99607.08
2023-11-21T15:45:42.060Z,99608.52
2023-11-21T15:48:14.384Z,99609.71
2023-11-21T15:50:48.111Z,99614.63
2023-11-21T15:53:20.962Z,99615.39
2023-11-21T15:55:53.295Z,99618.39
2023-11-21T15:58:26.157Z,99618.42
2023-11-21T16:00:58.978Z,99621.61
2023-11-21T16:03:34.833Z,99622.77
2023-11-21T16:06:10.963Z,99632.03
2023-11-21T16:08:43.226Z,99633.48
2023-11-21T16:11:15.712Z,99637.40
2023-11-21T16:13:50.077Z,99641.01
2023-11-21T16:16:26.550Z,99647.86
2023-11-21T16:18:58.321Z,99655.71
2023-11-21T16:21:31.752Z,99660.84
2023-11-21T16:24:04.410Z,99660.02
2023-11-21T16:26:37.024Z,99667.17
2023-11-21T16:29:09.070Z,99671.64
2023-11-21T16:31:41.566Z,99676.75
2023-11-21T16:34:20.518Z,99686.48
2023-11-21T16:36:53.344Z,99689.77
2023-11-21T16:39:25.895Z,99696.36
2023-11-21T16:41:58.606Z,99702.22
2023-11-21T16:44:35.526Z,99711.08
2023-11-21T16:47:08.493Z,99719.70
2023-11-21T16:49:41.953Z,99726.91
2023-11-21T16:52:14.234Z,99734.15
2023-11-21T16:54:46.372Z,99744.52
2023-11-21T16:57:19.083Z,99756.30
2023-11-21T16:59:52.316Z,99765.27
2023-11-21T17:02:25.161Z,99774.08
2023-11-21T17:04:57.663Z,99779.92
2023-11-21T17:07:30.763Z,99792.48
2023-11-21T17:10:04.111Z,99797.04
2023-11-21T17:12:36.267Z,99802.14
2023-11-21T17:15:10.440Z,99805.28
2023-11-21T17:17:42.748Z,99803.77
2023-11-21T17:20:16.013Z,99804.35
2023-11-21T17:22:49.132Z,99804.94
2023-11-21T17:25:21.505Z,99815.73
2023-11-21T17:27:53.411Z,99827.92
2023-11-21T17:30:25.506Z,99827.20
2023-11-21T17:32:58.202Z,99837.55
2023-11-21T17:35:30.432Z,99840.17
2023-11-21T17:38:02.649Z,99850.43
2023-11-21T17:40:36.159Z,99847.91
2023-11-21T17:43:09.014Z,99846.70
2023-11-21T17:45:41.485Z,99854.05
2023-11-21T17:48:14.080Z,99857.91
2023-11-21T17:50:46.321Z,99860.51
2023-11-21T17:53:19.005Z,99861.73
2023-11-21T17:55:51.385Z,99874.08
2023-11-21T17:58:23.237Z,99875.98
2023-11-21T18:00:55.528Z,99879.44
2023-11-21T18:03:27.814Z,99886.14
2023-11-21T18:06:00.048Z,99889.07
2023-11-21T18:08:31.877Z,99890.26
2023-11-21T18:11:06.375Z,99898.88
2023-11-21T18:13:38.699Z,99903.30
2023-11-21T18:16:12.078Z,99908.52
2023-11-21T18:18:43.976Z,99910.00
2023-11-21T18:21:16.161Z,99913.58
2023-11-21T18:23:48.418Z,99919.64
2023-11-21T18:26:23.657Z,99927.14
2023-11-21T18:28:55.916Z,99938.36
2023-11-21T18:31:27.947Z,99944.45
2023-11-21T18:34:00.763Z,99953.67
2023-11-21T18:36:33.016Z,99957.39
2023-11-21T18:39:04.965Z,99960.16
2023-11-21T18:41:37.114Z,99962.02
2023-11-21T18:44:10.127Z,99968.45
2023-11-21T18:46:43.118Z,99974.52
2023-11-21T18:49:15.002Z,99979.95
2023-11-21T18:51:50.127Z,99983.48
2023-11-21T18:54:21.325Z,99986.50
2023-11-21T18:56:53.892Z,99989.08
2023-11-21T18:59:26.171Z,99991.29
2023-11-21T19:01:59.104Z,99997.54
2023-11-21T19:04:31.310Z,99998.88
2023-11-21T19:07:03.559Z,100000.45
2023-11-21T19:09:37.002Z,100004.82
2023-11-21T19:12:14.293Z,100010.55
2023-11-21T19:14:48.523Z,100011.98
2023-11-21T19:17:21.618Z,100020.66
2023-11-21T19:19:53.652Z,100026.39
2023-11-21T19:22:25.456Z,100027.36
2023-11-21T19:24:57.959Z,100026.63
2023-11-21T19:27:40.014Z,100033.02
2023-11-21T19:30:15.675Z,100042.14
2023-11-21T19:33:00.942Z,100040.48
2023-11-21T19:35:40.236Z,100041.95
2023-11-21T19:38:12.423Z,100049.60
2023-11-21T19:40:45.864Z,100051.33
2023-11-21T19:43:18.729Z,100053.95
2023-11-21T19:46:05.582Z,100063.28
2023-11-21T19:48:39.341Z,100078.41
2023-11-21T19:51:13.148Z,100085.75
2023-11-21T19:53:45.532Z,100088.52
2023-11-21T19:56:18.590Z,100091.60
2023-11-21T19:58:51.928Z,100101.17
2023-11-21T20:01:24.324Z,100094.61
2023-11-21T20:03:58.944Z,100095.90
2023-11-21T20:06:35.065Z,100096.52
2023-11-21T20:09:14.793Z,100099.63
2023-11-21T20:11:56.082Z,100100.27
2023-11-21T20:14:32.128Z,100106.91
2023-11-21T20:17:04.550Z,100107.42
2023-11-21T20:19:38.127Z,100107.16
2023-11-21T20:22:10.581Z,100112.31
2023-11-21T20:24:42.439Z,100117.48
2023-11-21T20:27:15.792Z,100125.20
2023-11-21T20:29:47.725Z,100123.91
2023-11-21T20:32:25.431Z,100126.91
2023-11-21T20:34:57.471Z,100130.77
2023-11-21T20:37:29.637Z,100136.20
2023-11-21T20:40:01.872Z,100143.70
2023-11-21T20:42:33.915Z,100145.31
2023-11-21T20:45:07.115Z,100148.42
2023-11-21T20:47:39.735Z,100155.92
2023-11-21T20:50:13.982Z,100160.33
2023-11-21T20:52:46.336Z,100163.27
2023-11-21T20:55:18.800Z,100164.17
2023-11-21T20:57:51.803Z,100167.27
2023-11-21T21:00:27.192Z,100169.23
2023-11-21T21:02:59.092Z,100165.81
2023-11-21T21:05:32.106Z,100171.46
2023-11-21T21:08:15.439Z,100171.79
2023-11-21T21:10:48.012Z,100168.71
2023-11-21T21:13:20.604Z,100171.25
2023-11-21T21:15:52.397Z,100182.33
2023-11-21T21:18:27.734Z,100182.83
2023-11-21T21:21:00.910Z,100187.73
2023-11-21T21:23:32.760Z,100190.36
2023-11-21T21:26:09.171Z,100198.02
2023-11-21T21:28:41.961Z,100200.69
2023-11-21T21:31:14.318Z,100211.66
2023-11-21T21:33:46.390Z,100212.28
2023-11-21T21:36:18.551Z,100208.92
2023-11-21T21:38:52.342Z,100207.38
2023-11-21T21:41:25.957Z,100208.04
2023-11-21T21:43:59.556Z,100207.90
2023-11-21T21:46:31.449Z,100207.37
2023-11-21T21:49:04.792Z,100204.33
2023-11-21T21:51:38.321Z,100207.83
2023-11-21T21:54:10.766Z,100207.85
2023-11-21T21:56:42.528Z,100208.49
2023-11-21T21:59:14.383Z,100212.39
2023-11-21T22:01:49.471Z,100207.31
2023-11-21T22:04:20.237Z,100216.07
2023-11-21T22:06:51.997Z,100227.54
2023-11-21T22:09:34.162Z,100238.05
2023-11-21T22:12:07.397Z,100239.42
2023-11-21T22:14:39.360Z,100238.87
2023-11-21T22:17:12.035Z,100237.91
2023-11-21T22:19:44.263Z,100237.86
2023-11-21T22:22:16.254Z,100236.53
2023-11-21T22:24:48.486Z,100239.14
2023-11-21T22:27:20.860Z,100247.24
2023-11-21T22:29:52.953Z,100251.11
2023-11-21T22:32:25.000Z,100255.61
2023-11-21T22:34:57.978Z,100258.70
2023-11-21T22:37:30.014Z,100261.17
2023-11-21T22:40:01.908Z,100260.14
2023-11-21T22:42:34.003Z,100260.08
2023-11-21T22:45:09.270Z,100263.23
2023-11-21T22:47:39.710Z,100268.58
2023-11-21T22:50:15.128Z,100272.56
2023-11-21T22:52:47.482Z,100275.90
2023-11-21T22:55:20.118Z,100273.34
2023-11-21T22:57:51.714Z,100267.08
2023-11-21T23:00:31.239Z,100263.80
2023-11-21T23:03:03.437Z,100267.64
2023-11-21T23:05:35.656Z,100271.52
2023-11-21T23:08:10.126Z,100272.53
2023-11-21T23:10:42.212Z,100274.72
2023-11-21T23:13:14.819Z,100274.60
2023-11-21T23:15:48.431Z,100273.90
2023-11-21T23:18:27.918Z,100268.83
2023-11-21T23:21:01.242Z,100266.95
2023-11-21T23:23:33.228Z,100269.38
2023-11-21T23:26:05.249Z,100273.23
2023-11-21T23:28:37.335Z,100274.27
2023-11-21T23:31:09.964Z,100269.75
2023-11-21T23:33:42.284Z,100269.14
2023-11-21T23:36:14.426Z,100265.44
2023-11-21T23:38:46.041Z,100265.98
2023-11-21T23:41:19.211Z,100268.73
2023-11-21T23:43:51.118Z,100280.49
2023-11-21T23:46:24.476Z,100280.05
2023-11-21T23:48:56.235Z,100282.43
2023-11-21T23:51:28.117Z,100285.48
2023-11-21T23:54:00.221Z,100283.41
2023-11-21T23:56:32.207Z,100288.63
2023-11-21T23:59:03.796Z,100291.20
